createdAt,value
2018-11-20T00:01:52.997Z,50.19
2018-11-20T00:04:43.606Z,50.04
2018-11-20T00:07:30.282Z,49.35
2018-11-20T00:10:12.146Z,49.77
2018-11-20T00:12:48.908Z,49.10
2018-11-20T00:15:36.064Z,49.68
2018-11-20T00:18:22.940Z,49.10
2018-11-20T00:21:13.237Z,49.35
2018-11-20T00:24:01.637Z,49.46
2018-11-20T00:27:01.746Z,49.29
2018-11-20T00:29:41.225Z,49.21
2018-11-20T00:32:31.849Z,48.95
2018-11-20T00:35:16.012Z,48.61
2018-11-20T00:37:57.228Z,49.11
2018-11-20T00:40:44.237Z,48.59
2018-11-20T00:43:35.245Z,48.86
2018-11-20T00:46:38.411Z,49.05
2018-11-20T00:49:25.066Z,49.18
2018-11-20T00:52:21.825Z,49.11
2018-11-20T00:54:58.777Z,49.38
2018-11-20T00:57:45.448Z,49.27
2018-11-20T01:00:32.140Z,49.21
2018-11-20T01:03:09.544Z,49.15
2018-11-20T01:06:05.688Z,49.04
2018-11-20T01:08:57.278Z,48.38
2018-11-20T01:11:44.145Z,48.72
2018-11-20T01:14:47.705Z,48.87
2018-11-20T01:17:30.269Z,48.94
2018-11-20T01:20:17.065Z,48.86
2018-11-20T01:23:08.216Z,48.94
2018-11-20T01:25:50.868Z,49.15
2018-11-20T01:28:39.225Z,49.43
2018-11-20T01:31:26.377Z,49.49
2018-11-20T01:34:12.996Z,49.43
2018-11-20T01:37:00.377Z,49.31
2018-11-20T01:39:37.498Z,49.56
2018-11-20T01:42:25.631Z,49.56
2018-11-20T01:45:23.345Z,49.72
2018-11-20T01:48:06.606Z,49.42
2018-11-20T01:51:03.837Z,49.54
2018-11-20T01:53:43.964Z,49.26
2018-11-20T01:56:34.097Z,49.48
2018-11-20T01:59:21.072Z,49.63
2018-11-20T02:02:24.222Z,49.62
2018-11-20T02:05:10.976Z,49.39
2018-11-20T02:07:57.812Z,49.47
2018-11-20T02:10:45.916Z,49.69
2018-11-20T02:14:00.521Z,49.66
2018-11-20T02:16:47.960Z,49.92
2018-11-20T02:19:34.752Z,49.88
2018-11-20T02:22:16.258Z,49.53
2018-11-20T02:25:04.623Z,49.70
2018-11-20T02:28:01.891Z,49.62
2018-11-20T02:30:47.666Z,49.78
2018-11-20T02:33:47.301Z,49.96
2018-11-20T02:36:34.168Z,49.86
2018-11-20T02:39:14.926Z,49.81
2018-11-20T02:42:08.996Z,49.87
2018-11-20T02:44:58.657Z,49.82
2018-11-20T02:47:45.624Z,49.72
2018-11-20T02:50:32.753Z,49.56
2018-11-20T02:53:19.352Z,49.82
2018-11-20T02:55:57.683Z,49.88
2018-11-20T02:58:51.648Z,50.00
2018-11-20T03:01:54.721Z,49.91
2018-11-20T03:04:32.746Z,49.80
2018-11-20T03:07:20.830Z,50.02
2018-11-20T03:10:24.093Z,50.02
2018-11-20T03:13:14.811Z,49.99
2018-11-20T03:16:03.064Z,50.00
2018-11-20T03:18:42.571Z,50.06
2018-11-20T03:21:30.692Z,50.02
2018-11-20T03:24:18.761Z,50.01
2018-11-20T03:27:05.901Z,49.75
2018-11-20T03:30:38.913Z,50.13
2018-11-20T03:33:17.500Z,50.08
2018-11-20T03:36:03.926Z,50.37
2018-11-20T03:38:52.457Z,50.45
2018-11-20T03:41:43.252Z,50.46
2018-11-20T03:44:49.417Z,50.52
2018-11-20T03:47:40.010Z,50.40
2018-11-20T03:50:28.120Z,50.64
2018-11-20T03:53:06.691Z,50.64
2018-11-20T03:55:44.985Z,50.60
2018-11-20T03:58:39.636Z,50.47
2018-11-20T04:01:30.820Z,50.68
2018-11-20T04:04:08.449Z,50.75
2018-11-20T04:06:49.435Z,50.79
2018-11-20T04:09:26.696Z,50.74
2018-11-20T04:12:27.084Z,50.61
2018-11-20T04:15:18.138Z,50.77
2018-11-20T04:18:09.308Z,50.82
2018-11-20T04:20:56.280Z,51.05
2018-11-20T04:23:35.069Z,51.07
2018-11-20T04:26:23.293Z,51.07
2018-11-20T04:29:14.770Z,51.42
2018-11-20T04:32:18.628Z,51.50
2018-11-20T04:35:05.193Z,51.64
2018-11-20T04:37:43.973Z,51.61
2018-11-20T04:40:38.093Z,51.69
2018-11-20T04:43:25.072Z,51.54
2018-11-20T04:46:28.553Z,51.68
2018-11-20T04:49:14.156Z,52.05
2018-11-20T04:52:05.578Z,52.09
2018-11-20T04:54:49.576Z,51.99
2018-11-20T04:57:36.435Z,51.70
2018-11-20T05:00:18.549Z,51.69
2018-11-20T05:03:06.199Z,51.99
2018-11-20T05:06:12.501Z,51.89
2018-11-20T05:09:00.649Z,51.98
2018-11-20T05:12:04.157Z,51.90
2018-11-20T05:15:07.173Z,51.91
2018-11-20T05:17:59.301Z,52.00
2018-11-20T05:20:59.724Z,51.84
2018-11-20T05:23:47.002Z,51.98
2018-11-20T05:26:28.355Z,51.84
2018-11-20T05:29:15.033Z,51.94
2018-11-20T05:32:01.158Z,51.73
2018-11-20T05:34:52.005Z,51.91
2018-11-20T05:37:52.246Z,51.85
2018-11-20T05:40:32.363Z,51.65
2018-11-20T05:43:19.349Z,51.89
2018-11-20T05:46:07.463Z,51.84
2018-11-20T05:48:58.184Z,51.98
2018-11-20T05:51:44.943Z,51.91
2018-11-20T05:54:32.412Z,51.75
2018-11-20T05:57:26.576Z,51.79
2018-11-20T06:00:17.939Z,51.86
2018-11-20T06:03:13.667Z,51.37
2018-11-20T06:05:56.507Z,51.58
2018-11-20T06:08:43.241Z,51.21
2018-11-20T06:11:30.145Z,51.54
2018-11-20T06:14:18.244Z,51.74
2018-11-20T06:17:09.313Z,51.77
2018-11-20T06:20:03.239Z,51.59
2018-11-20T06:22:50.536Z,51.49
2018-11-20T06:25:38.004Z,51.48
2018-11-20T06:28:31.957Z,51.56
2018-11-20T06:31:26.261Z,51.60
2018-11-20T06:34:18.416Z,51.42
2018-11-20T06:37:06.937Z,51.49
2018-11-20T06:39:53.704Z,51.48
2018-11-20T06:42:34.935Z,51.55
2018-11-20T06:45:24.213Z,51.61
2018-11-20T06:48:15.206Z,51.53
2018-11-20T06:51:01.874Z,51.38
2018-11-20T06:53:43.523Z,51.21
2018-11-20T06:56:29.963Z,51.15
2018-11-20T06:59:23.806Z,51.49
2018-11-20T07:02:15.224Z,51.35
2018-11-20T07:05:06.890Z,51.53
2018-11-20T07:07:53.864Z,51.04
2018-11-20T07:10:40.648Z,51.25
2018-11-20T07:13:40.378Z,51.58
2018-11-20T07:16:42.412Z,51.60
2018-11-20T07:19:33.364Z,51.60
2018-11-20T07:22:13.956Z,51.60
2018-11-20T07:25:02.073Z,51.49
2018-11-20T07:27:59.389Z,51.37
2018-11-20T07:30:53.922Z,51.00
2018-11-20T07:33:37.594Z,51.24
2018-11-20T07:36:24.691Z,51.28
2018-11-20T07:39:11.348Z,51.14
2018-11-20T07:42:08.301Z,51.16
2018-11-20T07:44:56.374Z,51.39
2018-11-20T07:47:40.538Z,51.36
2018-11-20T07:50:37.619Z,51.35
2018-11-20T07:53:23.905Z,51.32
2018-11-20T07:56:10.837Z,50.88
2018-11-20T07:58:57.272Z,51.35
2018-11-20T08:01:48.294Z,51.39
2018-11-20T08:04:36.445Z,51.38
2018-11-20T08:07:20.197Z,51.07
2018-11-20T08:10:07.317Z,51.06
2018-11-20T08:12:56.041Z,50.70
2018-11-20T08:15:47.083Z,50.94
2018-11-20T08:18:23.140Z,51.12
2018-11-20T08:21:20.128Z,50.93
2018-11-20T08:24:09.563Z,50.59
2018-11-20T08:26:56.469Z,50.95
2018-11-20T08:29:34.521Z,50.79
2018-11-20T08:32:21.449Z,50.96
2018-11-20T08:35:08.595Z,50.78
2018-11-20T08:38:11.713Z,50.72
2018-11-20T08:40:50.777Z,50.84
2018-11-20T08:43:48.540Z,50.63
2018-11-20T08:46:31.526Z,49.87
2018-11-20T08:49:19.885Z,50.12
2018-11-20T08:52:05.909Z,50.24
2018-11-20T08:54:55.218Z,50.33
2018-11-20T08:57:55.358Z,50.29
2018-11-20T09:00:41.086Z,50.33
2018-11-20T09:03:21.068Z,50.35
2018-11-20T09:06:15.138Z,50.12
2018-11-20T09:09:05.790Z,50.17
2018-11-20T09:11:52.735Z,49.84
2018-11-20T09:14:52.794Z,50.08
2018-11-20T09:17:52.787Z,50.18
2018-11-20T09:20:52.711Z,50.14
2018-11-20T09:23:33.990Z,49.74
2018-11-20T09:26:22.056Z,50.00
2018-11-20T09:29:23.701Z,49.96
2018-11-20T09:32:07.731Z,49.84
2018-11-20T09:34:48.484Z,48.92
2018-11-20T09:37:42.720Z,49.28
2018-11-20T09:41:05.207Z,49.12
2018-11-20T09:44:01.001Z,49.51
2018-11-20T09:46:47.850Z,49.56
2018-11-20T09:49:35.931Z,49.60
2018-11-20T09:52:27.300Z,49.57
2018-11-20T09:55:13.932Z,49.47
2018-11-20T09:58:00.538Z,49.36
2018-11-20T10:00:47.493Z,49.20
2018-11-20T10:03:37.263Z,49.25
2018-11-20T10:06:40.249Z,49.34
2018-11-20T10:09:28.073Z,49.32
2018-11-20T10:12:22.621Z,49.28
2018-11-20T10:15:22.404Z,48.79
2018-11-20T10:18:06.792Z,48.91
2018-11-20T10:20:50.697Z,48.40
2018-11-20T10:23:35.731Z,48.96
2018-11-20T10:26:23.856Z,49.08
2018-11-20T10:29:18.024Z,48.96
2018-11-20T10:32:15.013Z,48.77
2018-11-20T10:35:08.553Z,48.43
2018-11-20T10:37:56.711Z,48.05
2018-11-20T10:40:50.647Z,48.42
2018-11-20T10:43:37.475Z,48.49
2018-11-20T10:46:40.770Z,48.21
2018-11-20T10:49:29.562Z,48.02
2018-11-20T10:52:29.609Z,47.54
2018-11-20T10:55:20.251Z,47.93
2018-11-20T10:58:14.100Z,48.15
2018-11-20T11:01:01.076Z,48.08
2018-11-20T11:03:48.245Z,47.98
2018-11-20T11:06:36.541Z,48.34
2018-11-20T11:09:27.200Z,48.61
2018-11-20T11:12:09.271Z,48.78
2018-11-20T11:14:56.436Z,49.02
2018-11-20T11:17:47.401Z,48.83
2018-11-20T11:20:34.405Z,49.34
2018-11-20T11:23:25.230Z,49.51
2018-11-20T11:26:12.138Z,49.93
2018-11-20T11:29:12.522Z,50.19
2018-11-20T11:32:00.661Z,50.69
2018-11-20T11:34:48.825Z,50.95
2018-11-20T11:37:31.406Z,51.17
2018-11-20T11:40:07.443Z,51.28
2018-11-20T11:42:55.541Z,51.44
2018-11-20T11:46:02.290Z,51.62
2018-11-20T11:48:51.113Z,51.89
2018-11-20T11:51:37.015Z,52.33
2018-11-20T11:54:19.314Z,52.57
2018-11-20T11:57:20.099Z,52.71
2018-11-20T12:00:07.754Z,53.02
2018-11-20T12:06:01.056Z,53.46
2018-11-20T12:08:48.207Z,53.56
2018-11-20T12:11:35.165Z,53.66
2018-11-20T12:14:21.946Z,53.91
2018-11-20T12:17:18.930Z,54.01
2018-11-20T12:20:19.599Z,54.14
2018-11-20T12:23:06.315Z,54.09
2018-11-20T12:25:52.073Z,54.20
2018-11-20T12:28:55.868Z,54.21
2018-11-20T12:31:32.998Z,54.24
2018-11-20T12:34:16.747Z,54.41
2018-11-20T12:36:58.822Z,54.50
2018-11-20T12:39:59.523Z,54.53
2018-11-20T12:42:46.500Z,54.59
2018-11-20T12:45:37.452Z,54.75
2018-11-20T12:48:24.302Z,55.08
2018-11-20T12:51:12.474Z,55.07
2018-11-20T12:53:59.709Z,55.19
2018-11-20T12:56:46.451Z,55.17
2018-11-20T12:59:40.593Z,55.24
2018-11-20T13:02:27.777Z,55.46
2018-11-20T13:05:34.000Z,55.57
2018-11-20T13:08:22.636Z,55.74
2018-11-20T13:11:09.397Z,55.88
2018-11-20T13:13:56.614Z,55.86
2018-11-20T13:16:50.925Z,55.91
2018-11-20T13:19:41.909Z,56.04
2018-11-20T13:22:37.544Z,56.05
2018-11-20T13:25:24.414Z,56.19
2018-11-20T13:28:25.066Z,56.39
2018-11-20T13:31:12.320Z,56.60
2018-11-20T13:34:00.457Z,56.71
2018-11-20T13:36:47.266Z,57.02
2018-11-20T13:39:34.522Z,57.19
2018-11-20T13:42:37.493Z,57.57
2018-11-20T13:45:23.514Z,57.68
2018-11-20T13:48:10.604Z,57.44
2018-11-20T13:51:04.823Z,57.26
2018-11-20T13:54:02.090Z,57.25
2018-11-20T13:56:59.787Z,57.21
2018-11-20T13:59:46.506Z,57.27
2018-11-20T14:02:47.065Z,57.31
2018-11-20T14:05:38.530Z,57.34
2018-11-20T14:08:36.583Z,57.20
2018-11-20T14:11:27.610Z,57.23
2018-11-20T14:14:03.582Z,57.25
2018-11-20T14:16:50.242Z,57.20
2018-11-20T14:19:31.105Z,57.13
2018-11-20T14:22:19.303Z,57.13
2018-11-20T14:25:07.667Z,57.27
2018-11-20T14:27:58.850Z,57.14
2018-11-20T14:30:55.962Z,57.14
2018-11-20T14:33:42.687Z,57.03
2018-11-20T14:36:29.626Z,56.94
2018-11-20T14:39:32.696Z,56.88
2018-11-20T14:42:21.716Z,56.81
2018-11-20T14:45:08.336Z,56.78
2018-11-20T14:47:56.582Z,56.76
2018-11-20T14:50:47.591Z,56.75
2018-11-20T14:53:34.594Z,56.53
2018-11-20T14:56:13.483Z,56.52
2018-11-20T14:58:57.879Z,56.59
2018-11-20T15:01:44.646Z,56.52
2018-11-20T15:04:45.129Z,56.55
2018-11-20T15:07:23.214Z,56.80
2018-11-20T15:10:11.456Z,56.81
2018-11-20T15:12:49.367Z,56.69
2018-11-20T15:15:38.436Z,56.73
2018-11-20T15:18:24.912Z,56.63
2018-11-20T15:21:25.339Z,56.82
2018-11-20T15:24:12.742Z,56.84
2018-11-20T15:26:59.597Z,56.87
2018-11-20T15:29:51.034Z,56.89
2018-11-20T15:32:33.425Z,56.88
2018-11-20T15:35:22.776Z,56.83
2018-11-20T15:38:05.150Z,56.73
2018-11-20T15:40:59.154Z,56.69
2018-11-20T15:44:05.646Z,56.56
2018-11-20T15:46:52.457Z,56.47
2018-11-20T15:49:44.562Z,56.53
2018-11-20T15:52:31.905Z,56.65
2018-11-20T15:55:28.641Z,56.72
2018-11-20T15:58:15.470Z,56.74
2018-11-20T16:01:02.146Z,56.77
2018-11-20T16:03:49.542Z,56.81
2018-11-20T16:06:30.352Z,56.90
2018-11-20T16:09:17.257Z,57.11
2018-11-20T16:12:20.406Z,57.18
2018-11-20T16:15:17.506Z,57.31
2018-11-20T16:18:04.031Z,57.31
2018-11-20T16:20:46.315Z,57.14
2018-11-20T16:23:25.814Z,57.10
2018-11-20T16:26:10.334Z,57.02
2018-11-20T16:29:10.495Z,56.97
2018-11-20T16:31:57.461Z,56.83
2018-11-20T16:34:56.143Z,56.78
2018-11-20T16:37:43.698Z,56.82
2018-11-20T16:40:30.530Z,56.86
2018-11-20T16:43:27.740Z,56.89
2018-11-20T16:46:14.660Z,56.92
2018-11-20T16:49:05.918Z,56.92
2018-11-20T16:51:56.593Z,57.01
2018-11-20T16:54:40.655Z,57.03
2018-11-20T16:57:27.687Z,57.11
2018-11-20T17:00:14.265Z,57.24
2018-11-20T17:02:54.679Z,57.51
2018-11-20T17:05:57.655Z,57.76
2018-11-20T17:09:00.827Z,57.68
2018-11-20T17:11:39.115Z,57.59
2018-11-20T17:14:24.766Z,57.57
2018-11-20T17:17:21.770Z,57.55
2018-11-20T17:20:15.866Z,57.55
2018-11-20T17:23:09.858Z,57.56
2018-11-20T17:25:58.238Z,57.43
2018-11-20T17:28:39.863Z,57.36
2018-11-20T17:31:34.321Z,57.29
2018-11-20T17:34:13.681Z,57.32
2018-11-20T17:37:00.477Z,57.29
2018-11-20T17:40:08.060Z,57.25
2018-11-20T17:43:14.338Z,57.31
2018-11-20T17:45:53.990Z,57.49
2018-11-20T17:48:51.282Z,57.51
2018-11-20T17:51:57.451Z,57.52
2018-11-20T17:54:34.774Z,57.44
2018-11-20T17:57:38.025Z,57.39
2018-11-20T18:00:31.396Z,57.33
2018-11-20T18:03:09.020Z,57.30
2018-11-20T18:06:04.081Z,57.30
2018-11-20T18:09:00.843Z,57.28
2018-11-20T18:11:49.437Z,57.35
2018-11-20T18:14:37.819Z,57.28
2018-11-20T18:17:25.018Z,57.28
2018-11-20T18:20:04.759Z,57.21
2018-11-20T18:22:52.827Z,57.16
2018-11-20T18:25:40.427Z,57.29
2018-11-20T18:28:31.451Z,57.21
2018-11-20T18:31:38.046Z,57.16
2018-11-20T18:34:28.673Z,57.16
2018-11-20T18:37:29.339Z,57.25
2018-11-20T18:40:19.192Z,57.21
2018-11-20T18:42:56.202Z,57.19
2018-11-20T18:45:43.062Z,57.12
2018-11-20T18:48:29.730Z,57.01
2018-11-20T18:51:13.682Z,56.86
2018-11-20T18:54:00.637Z,57.20
2018-11-20T18:57:06.797Z,57.16
2018-11-20T19:00:13.266Z,57.17
2018-11-20T19:02:57.528Z,57.16
2018-11-20T19:05:43.999Z,57.17
2018-11-20T19:08:30.958Z,57.10
2018-11-20T19:11:27.988Z,57.19
2018-11-20T19:14:34.601Z,57.32
2018-11-20T19:17:56.934Z,57.97
2018-11-20T19:20:44.648Z,57.80
2018-11-20T19:23:32.018Z,57.83
2018-11-20T19:26:28.366Z,57.48
2018-11-20T19:29:26.568Z,57.81
2018-11-20T19:32:12.591Z,57.96
2018-11-20T19:35:01.544Z,58.12
2018-11-20T19:38:07.026Z,58.12
2018-11-20T19:40:53.666Z,58.16
2018-11-20T19:43:40.022Z,58.13
2018-11-20T19:46:39.500Z,57.97
2018-11-20T19:49:21.160Z,57.95
2018-11-20T19:52:04.347Z,57.87
2018-11-20T19:54:58.139Z,57.82
2018-11-20T19:57:45.483Z,57.86
2018-11-20T20:00:32.910Z,57.90
2018-11-20T20:03:12.093Z,57.78
2018-11-20T20:06:05.552Z,57.67
2018-11-20T20:08:56.379Z,57.56
2018-11-20T20:11:42.628Z,57.48
2018-11-20T20:14:39.378Z,57.49
2018-11-20T20:17:26.485Z,57.63
2018-11-20T20:20:12.710Z,57.59
2018-11-20T20:22:47.342Z,57.55
2018-11-20T20:25:34.623Z,57.55
2018-11-20T20:28:33.902Z,57.43
2018-11-20T20:31:21.462Z,57.35
2018-11-20T20:34:04.238Z,57.41
2018-11-20T20:36:50.132Z,57.41
2018-11-20T20:39:46.811Z,57.51
2018-11-20T20:42:25.748Z,57.55
2018-11-20T20:45:22.107Z,57.50
2018-11-20T20:48:08.002Z,57.45
2018-11-20T20:50:55.275Z,57.32
2018-11-20T20:53:48.851Z,57.51
2018-11-20T20:56:35.424Z,57.47
2018-11-20T20:59:25.832Z,57.53
2018-11-20T21:02:28.321Z,57.70
2018-11-20T21:05:04.519Z,57.90
2018-11-20T21:07:47.094Z,58.11
2018-11-20T21:10:34.402Z,58.16
2018-11-20T21:13:20.023Z,58.17
2018-11-20T21:16:10.158Z,58.14
2018-11-20T21:18:56.620Z,58.10
2018-11-20T21:21:42.654Z,58.23
2018-11-20T21:24:35.567Z,58.43
2018-11-20T21:27:16.763Z,58.58
2018-11-20T21:30:07.459Z,58.65
2018-11-20T21:32:53.460Z,58.60
2018-11-20T21:35:39.168Z,58.53
2018-11-20T21:38:25.045Z,58.57
2018-11-20T21:41:27.747Z,58.76
2018-11-20T21:44:09.136Z,58.85
2018-11-20T21:46:56.484Z,58.84
2018-11-20T21:49:42.367Z,58.89
2018-11-20T21:52:28.101Z,58.82
2018-11-20T21:55:30.882Z,58.92
2018-11-20T21:58:17.028Z,59.05
2018-11-20T22:01:24.627Z,59.00
2018-11-20T22:04:15.235Z,59.15
2018-11-20T22:07:11.830Z,59.08
2018-11-20T22:10:17.878Z,59.11
2018-11-20T22:13:04.208Z,59.06
2018-11-20T22:16:07.992Z,59.06
2018-11-20T22:19:01.091Z,59.14
2018-11-20T22:22:00.667Z,59.16
2018-11-20T22:24:47.959Z,59.07
2018-11-20T22:27:44.567Z,59.09
2018-11-20T22:30:32.767Z,59.01
2018-11-20T22:33:19.014Z,59.03
2018-11-20T22:36:05.159Z,59.05
2018-11-20T22:38:51.319Z,59.22
2018-11-20T22:41:38.622Z,59.39
2018-11-20T22:44:19.668Z,59.48
2018-11-20T22:47:01.908Z,59.40
2018-11-20T22:50:02.050Z,59.28
2018-11-20T22:52:46.338Z,59.15
2018-11-20T22:55:42.631Z,59.15
2018-11-20T22:58:21.930Z,59.12
2018-11-20T23:01:05.663Z,59.06
2018-11-20T23:03:51.998Z,59.00
2018-11-20T23:06:53.294Z,58.97
2018-11-20T23:09:21.475Z,59.15
2018-11-20T23:11:49.688Z,59.18
2018-11-20T23:14:18.177Z,59.19
2018-11-20T23:16:46.695Z,59.13
2018-11-20T23:19:14.863Z,59.15
2018-11-20T23:21:43.067Z,59.33
2018-11-20T23:24:14.151Z,59.33
2018-11-20T23:26:42.727Z,59.43
2018-11-20T23:29:11.087Z,59.45
2018-11-20T23:31:39.230Z,59.50
2018-11-20T23:34:07.526Z,59.49
2018-11-20T23:36:36.129Z,59.47
2018-11-20T23:39:06.773Z,59.47
2018-11-20T23:41:35.442Z,59.47
2018-11-20T23:44:03.711Z,59.44
2018-11-20T23:46:31.903Z,59.41
2018-11-20T23:49:00.074Z,59.41
2018-11-20T23:51:28.487Z,59.42
2018-11-20T23:53:56.997Z,59.40
2018-11-20T23:56:25.410Z,59.42
2018-11-20T23:58:53.859Z,59.49
